Terminal Aerodrome Forecast
Issued by NWS Omaha/Valley, NE

Home | Current Version | Previous Version | Text Only | Print | Product List | Glossary Off
Versions: 1 2 3 4 5 6 7 8 9 10 11 12 13 14 15 16 17 18 19

000
FTUS43 KOAX 190520
TAFOFK
TAF
KOFK 190520Z 1906/2006 13007KT 3SM BR SKC
     FM190700 14006KT 1SM BR SCT003
     FM191500 16011KT P6SM SCT025
     FM191800 16018G25KT P6SM SCT050
     FM200300 16012G23KT P6SM BKN100 WS020/17045KT=

USA.gov is the U.S. government's official web portal to all federal, state and local government web resources and services.